createdAt,value
2019-02-08T00:08:34.252Z,86.00
2019-02-08T00:18:39.748Z,85.90
2019-02-08T00:28:45.345Z,86.40
2019-02-08T00:38:50.631Z,85.80
2019-02-08T00:48:55.928Z,85.80
2019-02-08T00:59:01.406Z,85.40
2019-02-08T01:09:08.853Z,85.20
2019-02-08T01:19:14.252Z,84.80
2019-02-08T01:29:19.846Z,85.30
2019-02-08T01:39:25.554Z,84.90
2019-02-08T01:49:30.948Z,84.10
2019-02-08T01:59:36.331Z,83.90
2019-02-08T02:09:41.842Z,82.90
2019-02-08T02:19:47.230Z,83.10
2019-02-08T02:29:52.823Z,83.80
2019-02-08T02:39:58.315Z,83.10
2019-02-08T02:50:03.817Z,83.50
2019-02-08T03:00:12.428Z,83.40
2019-02-08T03:10:20.044Z,84.70
2019-02-08T03:20:25.466Z,85.30
2019-02-08T03:30:37.268Z,86.00
2019-02-08T03:40:44.703Z,86.00
2019-02-08T03:50:50.091Z,86.40
2019-02-08T04:00:57.021Z,85.70
2019-02-08T04:11:02.412Z,85.70
2019-02-08T04:21:09.549Z,85.70
2019-02-08T04:31:15.052Z,85.50
2019-02-08T04:41:20.748Z,86.30
2019-02-08T04:51:26.046Z,86.90
2019-02-08T05:01:31.586Z,87.10
2019-02-08T05:11:37.036Z,86.60
2019-02-08T05:21:42.415Z,87.30
2019-02-08T05:31:47.917Z,87.50
2019-02-08T05:41:53.414Z,87.90
2019-02-08T05:51:58.825Z,90.60
2019-02-08T06:02:06.840Z,91.50
2019-02-08T06:12:14.724Z,91.80
2019-02-08T06:22:23.000Z,92.10
2019-02-08T06:32:30.814Z,91.80
2019-02-08T06:42:36.139Z,92.20
2019-02-08T06:52:41.501Z,92.30
2019-02-08T07:02:51.504Z,92.20
2019-02-08T07:13:01.298Z,92.30
2019-02-08T07:23:08.437Z,92.20
2019-02-08T07:43:58.844Z,92.30
2019-02-08T07:54:21.142Z,92.20
2019-02-08T08:04:40.870Z,91.90
2019-02-08T08:15:00.335Z,90.90
2019-02-08T08:25:08.752Z,91.00
2019-02-08T08:35:23.157Z,91.00
2019-02-08T08:46:12.276Z,90.00
2019-02-08T08:56:38.761Z,88.60
2019-02-08T09:06:49.903Z,87.50
2019-02-08T09:17:10.032Z,86.00
2019-02-08T09:27:36.207Z,86.00
2019-02-08T09:37:51.431Z,85.60
2019-02-08T09:48:32.762Z,84.70
2019-02-08T09:58:58.849Z,84.10
2019-02-08T10:09:23.898Z,83.70
2019-02-08T10:19:48.747Z,83.10
2019-02-08T10:30:34.494Z,80.90
2019-02-08T10:40:45.716Z,81.80
2019-02-08T10:51:17.734Z,81.80
2019-02-08T11:01:41.950Z,81.80
2019-02-08T11:12:13.882Z,82.00
2019-02-08T11:22:22.345Z,81.10
2019-02-08T11:32:42.505Z,79.80
2019-02-08T11:42:36.013Z,78.30
2019-02-08T11:52:41.875Z,80.00
2019-02-08T12:02:47.404Z,77.90
2019-02-08T12:12:54.138Z,77.60
2019-02-08T12:23:00.765Z,75.50
2019-02-08T12:33:10.154Z,75.40
2019-02-08T12:43:15.858Z,72.80
2019-02-08T12:53:23.306Z,73.00
2019-02-08T13:03:29.308Z,70.80
2019-02-08T13:13:35.201Z,69.40
2019-02-08T13:23:40.896Z,71.30
2019-02-08T13:33:46.392Z,72.30
2019-02-08T13:43:54.352Z,70.70
2019-02-08T13:54:00.052Z,71.40
2019-02-08T14:04:05.651Z,72.80
2019-02-08T19:26:09.881Z,91.90
2019-02-08T19:46:51.295Z,92.00
2019-02-08T19:56:58.033Z,92.40
2019-02-08T20:07:05.476Z,93.30
2019-02-08T20:17:10.646Z,93.40
2019-02-08T20:27:16.053Z,93.80
2019-02-08T20:37:21.131Z,93.60
2019-02-08T20:47:27.312Z,93.50
2019-02-08T20:57:32.631Z,93.90
2019-02-08T21:07:37.848Z,93.90
2019-02-08T21:17:42.947Z,93.10
2019-02-08T21:27:48.651Z,92.70
2019-02-08T21:37:53.662Z,92.90
2019-02-08T21:47:58.831Z,93.00
2019-02-08T21:58:03.948Z,92.60
2019-02-08T22:08:10.278Z,92.60
2019-02-08T22:18:15.243Z,92.90
2019-02-08T22:28:20.119Z,92.20
2019-02-08T22:38:24.909Z,92.30
2019-02-08T22:48:29.734Z,92.10
2019-02-08T22:58:34.632Z,91.50
2019-02-08T23:08:39.447Z,91.10
2019-02-08T23:18:44.294Z,91.50
2019-02-08T23:28:49.077Z,90.80
2019-02-08T23:38:53.889Z,91.40
2019-02-08T23:48:58.685Z,91.90
2019-02-08T23:59:03.477Z,92.30
